Time;durP1;ratioP1;P1;durP2;ratioP2;P2;SDS_P1;SDS_P2;PMS_P1;PMS_P2;Temp;Humidity;BMP_temperature;BMP_pressure;BME280_temperature;BME280_humidity;BME280_pressure;Samples;Min_cycle;Max_cycle;Signal;HPM_P1;HPM_P2
2022/11/28 00:01:22;;;;;;;;;3.75;3.75;;;;;8.52;67.50;99474.88;5074832;28;8826;-59
2022/11/28 00:03:50;;;;;;;;;4.00;3.00;;;;;8.54;66.84;99470.31;5074482;28;8860;-59
2022/11/28 00:06:18;;;;;;;;;5.50;4.00;;;;;8.57;67.21;99472.72;5075112;28;8980;-59
2022/11/28 00:08:46;;;;;;;;;4.00;4.00;;;;;8.61;67.27;99473.31;5074169;28;8861;-59
2022/11/28 00:11:13;;;;;;;;;3.50;3.50;;;;;8.62;67.06;99459.94;5073743;28;8822;-59
2022/11/28 00:13:41;;;;;;;;;5.50;5.00;;;;;8.66;66.83;99458.72;5073409;28;8825;-59
2022/11/28 00:16:09;;;;;;;;;6.00;6.00;;;;;8.70;66.72;99448.69;5074124;28;8872;-59
2022/11/28 00:18:37;;;;;;;;;6.00;6.00;;;;;8.72;66.69;99452.94;5074802;28;8948;-59
2022/11/28 00:21:04;;;;;;;;;4.50;4.50;;;;;8.76;66.75;99446.41;5073621;28;8836;-59
2022/11/28 00:23:33;;;;;;;;;6.00;4.00;;;;;8.78;66.67;99452.44;5074269;28;8924;-59
2022/11/28 00:26:01;;;;;;;;;3.00;3.00;;;;;8.79;66.67;99443.50;5075176;28;8880;-60
2022/11/28 00:28:28;;;;;;;;;4.50;3.75;;;;;8.81;66.59;99446.06;5074491;28;9485;-59
2022/11/28 00:30:56;;;;;;;;;7.00;4.50;;;;;8.78;66.15;99439.16;5074886;28;8822;-60
2022/11/28 00:33:23;;;;;;;;;3.75;3.00;;;;;8.77;66.61;99429.53;5075074;28;8818;-60
2022/11/28 00:35:52;;;;;;;;;6.50;6.50;;;;;8.76;66.26;99424.31;5074923;28;8813;-59
2022/11/28 00:38:20;;;;;;;;;4.00;4.00;;;;;8.74;66.58;99424.44;5074376;28;9681;-59
2022/11/28 00:40:48;;;;;;;;;0.00;0.00;;;;;8.72;66.37;99418.41;5074709;28;8903;-58
2022/11/28 00:43:15;;;;;;;;;7.00;6.00;;;;;8.64;67.10;99417.34;5078938;28;8831;-59
2022/11/28 00:45:43;;;;;;;;;4.50;4.00;;;;;8.47;67.03;99415.19;5078618;28;8861;-59
2022/11/28 00:48:11;;;;;;;;;6.25;6.25;;;;;8.28;67.82;99414.97;5078560;28;9007;-59
2022/11/28 00:50:39;;;;;;;;;6.00;4.00;;;;;8.11;68.25;99420.69;5078006;28;8840;-59
2022/11/28 00:53:07;;;;;;;;;6.00;6.00;;;;;7.97;69.26;99426.22;5078645;28;8849;-60
2022/11/28 00:55:34;;;;;;;;;6.00;3.00;;;;;7.87;68.85;99423.47;5078786;28;8825;-60
2022/11/28 00:58:02;;;;;;;;;3.50;3.50;;;;;7.79;69.08;99415.25;5078885;28;8837;-59
2022/11/28 01:00:30;;;;;;;;;6.50;6.00;;;;;7.73;69.68;99415.72;5078598;28;8868;-60
2022/11/28 01:02:58;;;;;;;;;3.75;3.50;;;;;7.68;69.65;99400.28;5078802;28;8926;-59
2022/11/28 01:05:26;;;;;;;;;0.50;0.50;;;;;7.62;69.54;99409.56;5078543;28;8849;-59
2022/11/28 01:07:53;;;;;;;;;6.00;6.00;;;;;7.59;70.38;99404.47;5078450;28;8837;-59
2022/11/28 01:10:21;;;;;;;;;5.20;4.00;;;;;7.55;70.48;99410.13;5076889;28;8841;-59
2022/11/28 01:12:50;;;;;;;;;3.60;3.60;;;;;7.50;70.77;99396.41;5076918;28;8829;-59
2022/11/28 01:15:18;;;;;;;;;3.00;1.00;;;;;7.45;70.79;99396.75;5076794;28;8841;-59
2022/11/28 01:17:46;;;;;;;;;3.40;3.00;;;;;7.42;71.03;99399.59;5077095;28;9207;-59
2022/11/28 01:20:13;;;;;;;;;4.00;4.00;;;;;7.39;71.19;99397.22;5077085;28;8825;-59
2022/11/28 01:22:41;;;;;;;;;5.60;4.00;;;;;7.36;71.64;99397.41;5077956;28;9325;-59
2022/11/28 01:25:09;;;;;;;;;4.80;3.80;;;;;7.34;71.69;99401.16;5077792;28;8826;-59
2022/11/28 01:27:37;;;;;;;;;3.20;3.00;;;;;7.30;71.94;99391.75;5078786;28;8826;-60
2022/11/28 01:30:05;;;;;;;;;4.00;4.00;;;;;7.27;72.41;99392.00;5077840;28;8837;-59
2022/11/28 01:32:33;;;;;;;;;5.20;5.20;;;;;7.24;72.58;99376.31;5078184;28;8935;-59
2022/11/28 01:35:00;;;;;;;;;6.80;6.20;;;;;7.20;72.22;99381.00;5078444;28;8860;-59
2022/11/28 01:37:29;;;;;;;;;3.60;3.60;;;;;7.19;72.86;99389.06;5078531;28;9526;-59
2022/11/28 01:39:57;;;;;;;;;8.60;7.00;;;;;7.17;73.45;99377.72;5078334;28;8817;-59
2022/11/28 01:42:25;;;;;;;;;3.40;3.20;;;;;7.15;73.12;99383.16;5078341;28;8918;-59
2022/11/28 01:44:53;;;;;;;;;6.00;4.00;;;;;7.15;73.14;99372.56;5078227;28;8877;-59
2022/11/28 01:47:20;;;;;;;;;4.00;4.00;;;;;7.15;73.08;99374.38;5078422;28;8840;-59
2022/11/28 01:49:48;;;;;;;;;8.60;6.60;;;;;7.16;73.24;99379.56;5078213;28;8926;-59
2022/11/28 01:52:16;;;;;;;;;3.80;3.80;;;;;7.19;73.35;99381.97;5077978;28;8822;-59
2022/11/28 01:54:43;;;;;;;;;3.00;3.00;;;;;7.21;73.39;99372.09;5078416;28;8927;-59
2022/11/28 01:57:11;;;;;;;;;4.00;4.00;;;;;7.25;73.60;99376.22;5078285;28;9519;-58
2022/11/28 01:59:38;;;;;;;;;3.40;3.00;;;;;7.29;73.29;99379.47;5078060;28;8838;-59
2022/11/28 02:02:06;;;;;;;;;4.00;4.00;;;;;7.32;72.94;99379.22;5078317;28;8806;-59
2022/11/28 02:04:34;;;;;;;;;4.60;4.60;;;;;7.34;73.13;99375.50;5077783;28;8836;-59
2022/11/28 02:07:02;;;;;;;;;4.80;4.80;;;;;7.38;72.74;99369.03;5078102;28;8825;-59
2022/11/28 02:09:29;;;;;;;;;4.40;4.40;;;;;7.44;72.85;99365.06;5077642;28;8821;-59
2022/11/28 02:11:57;;;;;;;;;3.40;3.20;;;;;7.48;72.52;99356.78;5077938;28;8910;-59
2022/11/28 02:14:24;;;;;;;;;4.00;4.00;;;;;7.53;72.63;99362.56;5077550;28;8842;-59
2022/11/28 02:16:52;;;;;;;;;4.40;4.00;;;;;7.59;72.38;99355.97;5077739;28;8818;-59
2022/11/28 02:19:20;;;;;;;;;3.20;3.00;;;;;7.62;72.08;99361.00;5078130;28;9507;-59
2022/11/28 02:21:47;;;;;;;;;6.00;4.40;;;;;7.62;72.28;99367.16;5077760;28;8887;-59
2022/11/28 02:24:15;;;;;;;;;4.00;3.60;;;;;7.64;72.22;99353.81;5077531;28;8838;-59
2022/11/28 02:26:43;;;;;;;;;7.00;6.00;;;;;7.67;72.27;99345.59;5077427;28;8836;-59
2022/11/28 02:29:11;;;;;;;;;6.00;6.00;;;;;7.72;71.73;99348.75;5077374;28;8809;-59
2022/11/28 02:31:39;;;;;;;;;2.20;2.20;;;;;7.75;71.93;99336.94;5077394;28;8829;-58
2022/11/28 02:34:07;;;;;;;;;3.40;3.40;;;;;7.78;71.54;99342.03;5077199;28;8838;-59
2022/11/28 02:36:34;;;;;;;;;3.80;3.40;;;;;7.81;72.06;99339.13;5077427;28;8817;-59
2022/11/28 02:39:02;;;;;;;;;5.60;4.40;;;;;7.83;71.78;99334.53;5077219;28;8822;-59
2022/11/28 02:41:30;;;;;;;;;6.00;4.00;;;;;7.83;71.81;99323.09;5077396;28;9600;-59
2022/11/28 02:43:58;;;;;;;;;3.00;3.00;;;;;7.82;72.17;99314.31;5077303;28;8904;-59
2022/11/28 02:46:30;;;;;;;;;5.60;5.60;;;;;7.82;71.97;99316.94;5077059;28;8845;-59
2022/11/28 02:48:58;;;;;;;;;1.00;1.00;;;;;7.82;71.66;99319.59;5076678;28;8806;-59
2022/11/28 02:51:26;;;;;;;;;4.40;4.00;;;;;7.82;71.76;99313.44;5076786;28;8805;-59
2022/11/28 02:53:54;;;;;;;;;3.40;3.40;;;;;7.82;72.19;99305.50;5076688;28;8865;-59
2022/11/28 02:56:22;;;;;;;;;6.25;6.25;;;;;7.82;71.87;99303.69;5076650;28;8798;-59
2022/11/28 02:58:50;;;;;;;;;4.40;4.40;;;;;7.81;72.37;99294.06;5076612;28;9223;-58
2022/11/28 03:01:18;;;;;;;;;7.00;6.00;;;;;7.80;72.34;99295.03;5076808;28;8809;-55
2022/11/28 03:03:46;;;;;;;;;4.00;3.00;;;;;7.80;72.58;99302.97;5076073;28;9195;-59
2022/11/28 03:06:14;;;;;;;;;4.00;3.50;;;;;7.79;72.79;99309.25;5076573;28;8892;-59
2022/11/28 03:08:42;;;;;;;;;4.00;3.20;;;;;7.80;72.67;99305.63;5076763;28;8833;-59
2022/11/28 03:11:09;;;;;;;;;6.40;5.20;;;;;7.79;72.65;99298.66;5076154;28;8822;-59
2022/11/28 03:13:37;;;;;;;;;8.20;6.00;;;;;7.82;72.58;99292.25;5076910;28;8826;-59
2022/11/28 03:16:05;;;;;;;;;7.80;6.40;;;;;7.81;72.74;99278.16;5076897;28;8837;-59
2022/11/28 03:18:33;;;;;;;;;6.60;6.00;;;;;7.84;72.65;99282.38;5076857;28;8821;-59
2022/11/28 03:21:00;;;;;;;;;3.00;1.80;;;;;7.86;72.19;99293.69;5076641;28;8809;-59
2022/11/28 03:23:28;;;;;;;;;5.60;4.80;;;;;7.86;72.59;99297.22;5076496;28;8810;-59
2022/11/28 03:25:56;;;;;;;;;1.00;1.00;;;;;7.88;72.16;99289.97;5076172;28;8834;-60
2022/11/28 03:28:23;;;;;;;;;3.20;3.20;;;;;7.90;72.79;99290.69;5076099;28;8837;-59
2022/11/28 03:30:51;;;;;;;;;4.00;4.00;;;;;7.91;72.32;99304.78;5076490;28;8837;-59
2022/11/28 03:33:20;;;;;;;;;3.00;3.00;;;;;7.93;72.65;99297.56;5076515;28;8810;-59
2022/11/28 03:35:47;;;;;;;;;6.20;4.80;;;;;7.93;72.58;99290.47;5076258;28;8814;-59
2022/11/28 03:38:15;;;;;;;;;4.00;2.60;;;;;7.94;72.71;99289.50;5076443;28;8817;-59
2022/11/28 03:40:46;;;;;;;;;1.00;0.25;;;;;7.94;72.80;99276.25;5076264;28;8894;-59
2022/11/28 03:43:14;;;;;;;;;5.20;4.40;;;;;7.95;72.52;99283.22;5075975;28;8818;-59
2022/11/28 03:45:41;;;;;;;;;4.00;4.00;;;;;7.95;73.08;99285.88;5076007;28;8869;-59
2022/11/28 03:48:09;;;;;;;;;5.75;5.75;;;;;7.96;72.71;99282.25;5076328;28;8837;-59
2022/11/28 03:50:37;;;;;;;;;6.60;6.20;;;;;7.97;72.60;99283.94;5075936;28;8940;-60
2022/11/28 03:53:04;;;;;;;;;4.00;4.00;;;;;7.99;72.65;99282.00;5075678;28;8971;-59
2022/11/28 03:55:32;;;;;;;;;7.40;7.40;;;;;8.01;72.13;99277.44;5075848;28;8818;-60
2022/11/28 03:58:00;;;;;;;;;3.00;3.00;;;;;8.02;72.41;99287.06;5075823;28;8818;-59
2022/11/28 04:00:27;;;;;;;;;3.00;3.00;;;;;8.02;72.58;99284.41;5076039;28;8854;-60
2022/11/28 04:02:55;;;;;;;;;3.00;3.00;;;;;8.04;72.61;99290.44;5076012;28;8821;-60
2022/11/28 04:05:23;;;;;;;;;4.00;4.00;;;;;8.06;72.46;99291.16;5075672;28;8914;-59
2022/11/28 04:07:51;;;;;;;;;6.00;6.00;;;;;8.08;72.25;99291.88;5075486;28;8822;-59
2022/11/28 04:10:19;;;;;;;;;9.40;7.20;;;;;8.09;72.11;99290.91;5075983;28;8849;-60
2022/11/28 04:12:46;;;;;;;;;4.00;4.00;;;;;8.12;72.17;99297.75;5075494;28;8822;-59
2022/11/28 04:15:14;;;;;;;;;4.40;3.60;;;;;8.11;71.84;99301.38;5075097;28;8842;-60
2022/11/28 04:17:41;;;;;;;;;3.00;3.00;;;;;8.11;72.60;99304.88;5074788;28;8813;-60
2022/11/28 04:20:09;;;;;;;;;4.50;4.00;;;;;8.10;72.24;99300.56;5075284;28;8818;-59
2022/11/28 04:22:37;;;;;;;;;3.00;3.00;;;;;8.12;72.45;99303.06;5075084;28;8841;-59
2022/11/28 04:25:05;;;;;;;;;4.50;4.00;;;;;8.10;72.07;99299.69;5075106;28;8919;-59
2022/11/28 04:27:33;;;;;;;;;2.50;1.00;;;;;8.12;72.16;99311.88;5075264;28;8837;-59
2022/11/28 04:30:00;;;;;;;;;4.00;4.00;;;;;8.10;72.03;99297.91;5075517;28;8834;-60
2022/11/28 04:32:28;;;;;;;;;4.00;3.50;;;;;8.13;72.50;99305.59;5075510;28;8833;-60
2022/11/28 04:34:56;;;;;;;;;2.75;2.00;;;;;8.15;72.09;99303.66;5075692;28;8880;-59
2022/11/28 04:37:23;;;;;;;;;5.50;4.00;;;;;8.17;71.93;99293.78;5075362;28;8840;-60
2022/11/28 04:39:51;;;;;;;;;5.00;4.00;;;;;8.18;72.06;99276.06;5075451;28;8834;-59
2022/11/28 04:42:20;;;;;;;;;4.00;3.50;;;;;8.20;72.11;99279.50;5075348;28;8890;-59
2022/11/28 04:44:48;;;;;;;;;5.25;4.00;;;;;8.22;71.80;99278.38;5074999;28;8932;-60
2022/11/28 04:47:16;;;;;;;;;3.75;3.75;;;;;8.23;72.03;99279.22;5066758;28;8829;-60
2022/11/28 04:49:43;;;;;;;;;6.25;6.00;;;;;8.24;72.14;99280.91;5075083;28;8845;-59
2022/11/28 04:52:11;;;;;;;;;4.50;4.00;;;;;8.24;71.81;99286.22;5075310;28;8916;-59
2022/11/28 04:54:39;;;;;;;;;3.25;3.00;;;;;8.24;72.04;99289.72;5075082;28;8928;-59
2022/11/28 04:57:07;;;;;;;;;4.20;3.80;;;;;8.26;71.37;99293.09;5075043;28;8849;-59
2022/11/28 04:59:35;;;;;;;;;3.00;2.60;;;;;8.25;71.61;99299.38;5074847;28;8833;-60
2022/11/28 05:02:02;;;;;;;;;3.25;3.25;;;;;8.23;71.76;99301.31;5074472;28;8943;-59
2022/11/28 05:04:30;;;;;;;;;3.50;3.00;;;;;8.23;72.04;99298.66;5074617;28;8825;-60
2022/11/28 05:06:58;;;;;;;;;4.00;4.00;;;;;8.22;72.04;99290.81;5074410;28;8876;-59
2022/11/28 05:09:26;;;;;;;;;6.60;6.00;;;;;8.21;72.21;99297.91;5074711;28;8849;-59
2022/11/28 05:11:54;;;;;;;;;6.00;6.00;;;;;8.20;71.63;99304.19;5073066;28;9144;-58
2022/11/28 05:14:22;;;;;;;;;3.00;3.00;;;;;8.20;71.79;99298.88;5074645;28;9542;-60
2022/11/28 05:16:49;;;;;;;;;5.00;4.00;;;;;8.23;71.90;99298.66;5074152;28;8834;-59
2022/11/28 05:19:18;;;;;;;;;4.50;4.00;;;;;8.25;72.01;99294.06;5073920;28;8927;-59
2022/11/28 05:21:46;;;;;;;;;1.50;1.50;;;;;8.27;71.57;99300.06;5072413;28;9535;-59
2022/11/28 05:24:14;;;;;;;;;3.00;3.00;;;;;8.27;71.57;99284.16;5072979;28;8880;-60
2022/11/28 05:26:42;;;;;;;;;0.00;0.00;;;;;8.25;71.58;99283.44;5072728;28;8817;-59
2022/11/28 05:29:09;;;;;;;;;3.00;3.00;;;;;8.25;71.71;99278.16;5076544;28;8845;-59
2022/11/28 05:31:40;;;;;;;;;1.00;1.00;;;;;8.28;71.56;99263.81;5076126;28;8864;-59
2022/11/28 05:34:08;;;;;;;;;4.00;3.00;;;;;8.28;71.86;99258.50;5076561;28;8836;-59
2022/11/28 05:36:36;;;;;;;;;6.00;6.00;;;;;8.28;71.34;99263.81;5076455;28;8829;-59
2022/11/28 05:39:03;;;;;;;;;3.75;3.75;;;;;8.30;71.28;99286.56;5077183;28;8826;-60
2022/11/28 05:41:31;;;;;;;;;2.50;1.00;;;;;8.32;71.51;99295.25;5076864;28;8846;-59
2022/11/28 05:43:59;;;;;;;;;3.00;3.00;;;;;8.33;71.61;99299.59;5076909;28;8825;-59
2022/11/28 05:46:27;;;;;;;;;3.75;3.75;;;;;8.33;71.32;99291.63;5077505;28;8818;-59
2022/11/28 05:48:54;;;;;;;;;4.50;4.00;;;;;8.34;71.19;99295.09;5077710;28;8842;-60
2022/11/28 05:51:22;;;;;;;;;6.75;6.75;;;;;8.32;71.21;99295.25;5077903;28;8837;-58
2022/11/28 05:53:50;;;;;;;;;3.00;3.00;;;;;8.34;71.37;99295.97;5077296;28;8837;-59
2022/11/28 05:56:17;;;;;;;;;4.00;4.00;;;;;8.36;71.21;99293.19;5077446;28;8826;-59
2022/11/28 05:58:45;;;;;;;;;3.25;3.25;;;;;8.36;71.13;99288.72;5077947;28;8826;-59
2022/11/28 06:01:13;;;;;;;;;7.00;4.00;;;;;8.36;71.51;99296.66;5077211;28;8936;-59
2022/11/28 06:03:41;;;;;;;;;5.50;5.50;;;;;8.38;70.95;99289.44;5077691;28;9342;-59
2022/11/28 06:06:08;;;;;;;;;4.50;4.50;;;;;8.39;71.39;99290.28;5077664;28;8825;-60
2022/11/28 06:08:37;;;;;;;;;7.00;6.00;;;;;8.39;71.30;99290.28;5077162;28;9507;-59
2022/11/28 06:11:05;;;;;;;;;8.50;6.75;;;;;8.39;71.15;99280.53;5077343;28;8861;-60
2022/11/28 06:13:33;;;;;;;;;7.00;7.00;;;;;8.39;71.04;99271.72;5076398;28;8837;-59
2022/11/28 06:16:00;;;;;;;;;3.00;1.00;;;;;8.37;70.89;99277.13;5075837;28;8931;-59
2022/11/28 06:18:28;;;;;;;;;7.00;6.50;;;;;8.37;71.00;99285.09;5075861;28;8821;-59
2022/11/28 06:20:56;;;;;;;;;6.00;6.00;;;;;8.35;71.03;99286.22;5076250;28;8826;-59
2022/11/28 06:23:24;;;;;;;;;6.50;6.00;;;;;8.34;71.25;99298.63;5075477;28;8829;-60
2022/11/28 06:25:52;;;;;;;;;10.00;10.00;;;;;8.31;71.11;99298.88;5075786;28;8909;-60
2022/11/28 06:28:19;;;;;;;;;8.60;6.00;;;;;8.29;70.82;99302.63;5075734;28;8832;-59
2022/11/28 06:30:47;;;;;;;;;4.50;4.50;;;;;8.25;71.20;99295.84;5075314;28;8833;-59
2022/11/28 06:33:15;;;;;;;;;6.00;3.50;;;;;8.24;71.23;99291.53;5073806;28;8842;-59
2022/11/28 06:35:43;;;;;;;;;9.00;7.00;;;;;8.20;71.31;99298.88;5073537;28;8848;-59
2022/11/28 06:38:11;;;;;;;;;7.00;7.00;;;;;8.19;71.61;99294.53;5072359;28;8838;-59
2022/11/28 06:40:40;;;;;;;;;7.00;5.00;;;;;8.20;70.88;99288.28;5071888;28;8833;-59
2022/11/28 06:43:08;;;;;;;;;7.50;7.00;;;;;8.22;71.18;99291.63;5072962;28;8845;-59
2022/11/28 06:45:37;;;;;;;;;5.50;5.50;;;;;8.23;70.80;99280.09;5072856;28;9302;-59
2022/11/28 06:48:05;;;;;;;;;6.75;6.75;;;;;8.25;71.08;99290.56;5071293;28;8842;-59
2022/11/28 06:50:32;;;;;;;;;6.50;5.00;;;;;8.22;71.43;99286.31;5071496;28;8845;-59
2022/11/28 06:53:00;;;;;;;;;6.00;6.00;;;;;8.19;71.64;99291.88;5071004;28;8833;-59
2022/11/28 06:55:28;;;;;;;;;2.00;1.50;;;;;8.15;71.46;99285.09;5071143;28;8834;-59
2022/11/28 06:57:58;;;;;;;;;4.50;4.00;;;;;8.16;71.75;99278.00;5070448;28;8830;-59
2022/11/28 07:00:27;;;;;;;;;6.00;4.50;;;;;8.17;71.21;99277.88;5069746;28;9515;-59
2022/11/28 07:02:56;;;;;;;;;4.00;4.00;;;;;8.17;71.58;99280.53;5071160;28;8882;-59
2022/11/28 07:05:26;;;;;;;;;2.60;2.60;;;;;8.17;71.55;99285.84;5072036;28;8963;-59
2022/11/28 07:07:54;;;;;;;;;4.00;4.00;;;;;8.19;70.89;99275.97;5072336;28;8865;-59
2022/11/28 07:10:23;;;;;;;;;4.00;4.00;;;;;8.22;71.18;99286.31;5073763;28;9189;-59
2022/11/28 07:12:51;;;;;;;;;6.60;6.00;;;;;8.25;70.95;99286.09;5073817;28;8821;-59
2022/11/28 07:15:19;;;;;;;;;6.00;6.00;;;;;8.26;71.11;99295.75;5074034;28;8850;-59
2022/11/28 07:17:47;;;;;;;;;6.20;6.20;;;;;8.26;70.87;99295.75;5074282;28;8832;-59
2022/11/28 07:20:15;;;;;;;;;6.00;6.00;;;;;8.27;70.91;99292.13;5073484;28;8829;-59
2022/11/28 07:22:45;;;;;;;;;6.00;6.00;;;;;8.26;70.74;99287.78;5073886;28;8834;-59
2022/11/28 07:25:14;;;;;;;;;4.00;4.00;;;;;8.28;70.42;99288.50;5074837;28;8817;-58
2022/11/28 07:27:42;;;;;;;;;5.20;5.20;;;;;8.27;70.25;99294.75;5074271;28;8841;-59
2022/11/28 07:30:10;;;;;;;;;6.80;5.60;;;;;8.28;70.33;99296.44;5074078;28;8821;-60
2022/11/28 07:32:37;;;;;;;;;4.00;4.00;;;;;8.31;70.48;99303.31;5074302;28;8826;-59
2022/11/28 07:35:07;;;;;;;;;8.60;7.00;;;;;8.31;70.18;99303.31;5073862;28;8821;-60
2022/11/28 07:37:35;;;;;;;;;6.60;6.00;;;;;8.32;70.50;99302.34;5073452;28;8845;-59
2022/11/28 07:40:03;;;;;;;;;5.20;5.20;;;;;8.33;69.97;99301.38;5073219;28;8834;-59
2022/11/28 07:42:31;;;;;;;;;3.50;3.00;;;;;8.34;70.36;99306.56;5073853;28;8825;-59
2022/11/28 07:44:58;;;;;;;;;6.20;4.80;;;;;8.36;70.28;99317.06;5073830;28;9515;-59
2022/11/28 07:47:28;;;;;;;;;7.60;6.40;;;;;8.38;70.03;99336.34;5072288;28;8844;-59
2022/11/28 07:49:56;;;;;;;;;7.40;7.40;;;;;8.39;70.58;99338.88;5072964;28;8829;-59
2022/11/28 07:52:23;;;;;;;;;8.20;8.20;;;;;8.40;70.06;99339.72;5072509;28;8822;-59
2022/11/28 07:54:51;;;;;;;;;6.00;6.00;;;;;8.40;69.93;99335.25;5071190;28;8826;-58
2022/11/28 07:57:19;;;;;;;;;6.60;6.60;;;;;8.42;70.15;99335.13;5071873;28;8838;-59
2022/11/28 07:59:47;;;;;;;;;4.50;3.25;;;;;8.42;70.12;99324.50;5071346;28;8856;-60
2022/11/28 08:02:15;;;;;;;;;4.50;4.50;;;;;8.43;70.16;99323.56;5071910;28;8860;-59
2022/11/28 08:04:43;;;;;;;;;4.00;4.00;;;;;8.43;70.49;99324.38;5072723;28;8822;-59
2022/11/28 08:07:18;;;;;;;;;6.50;6.50;;;;;8.44;69.92;99326.06;5072170;28;8850;-59
2022/11/28 08:09:46;;;;;;;;;8.00;7.00;;;;;8.43;69.95;99328.88;5073156;28;8838;-59
2022/11/28 08:12:15;;;;;;;;;7.25;6.50;;;;;8.42;69.98;99319.19;5073562;28;8936;-58
2022/11/28 08:14:43;;;;;;;;;6.00;5.25;;;;;8.37;70.10;99319.56;5073223;28;8838;-57
2022/11/28 08:17:11;;;;;;;;;4.50;4.00;;;;;8.34;70.38;99314.53;5074402;28;8833;-58
2022/11/28 08:19:39;;;;;;;;;7.50;6.25;;;;;8.30;70.34;99313.06;5074071;28;8830;-59
2022/11/28 08:22:07;;;;;;;;;5.00;5.00;;;;;8.29;70.47;99327.31;5073755;28;8822;-58
2022/11/28 08:24:35;;;;;;;;;3.75;3.25;;;;;8.29;70.52;99323.81;5073825;28;8821;-58
2022/11/28 08:27:03;;;;;;;;;6.20;6.20;;;;;8.29;70.51;99327.31;5073780;28;8983;-59
2022/11/28 08:29:31;;;;;;;;;6.00;6.00;;;;;8.30;70.30;99322.84;5073150;28;8841;-59
2022/11/28 08:31:58;;;;;;;;;6.00;6.00;;;;;8.30;70.25;99322.84;5071944;28;8826;-59
2022/11/28 08:34:26;;;;;;;;;6.00;4.40;;;;;8.30;70.38;99323.69;5071793;28;8834;-59
2022/11/28 08:36:55;;;;;;;;;7.00;6.60;;;;;8.30;69.87;99323.69;5071032;28;8966;-59
2022/11/28 08:39:24;;;;;;;;;3.50;3.50;;;;;8.31;70.43;99319.25;5070503;28;9530;-59
2022/11/28 08:41:52;;;;;;;;;6.80;6.80;;;;;8.31;70.56;99308.63;5071458;28;8833;-59
2022/11/28 08:44:19;;;;;;;;;10.00;9.00;;;;;8.30;69.88;99310.41;5071802;28;9542;-59
2022/11/28 08:46:47;;;;;;;;;6.75;6.75;;;;;8.31;70.28;99322.75;5071383;28;8834;-59
2022/11/28 08:49:15;;;;;;;;;7.00;6.25;;;;;8.30;69.89;99318.38;5070939;28;8865;-59
2022/11/28 08:51:43;;;;;;;;;8.20;8.20;;;;;8.32;70.25;99311.16;5070501;28;8848;-59
2022/11/28 08:54:11;;;;;;;;;6.40;6.40;;;;;8.33;70.42;99318.16;5071377;28;9261;-58
2022/11/28 08:56:39;;;;;;;;;4.50;4.00;;;;;8.35;70.25;99321.50;5070269;28;8853;-59
2022/11/28 08:59:07;;;;;;;;;6.00;6.00;;;;;8.36;70.71;99328.50;5072044;28;8841;-59
2022/11/28 09:01:35;;;;;;;;;8.00;6.00;;;;;8.38;70.39;99320.44;5071496;28;8846;-59
2022/11/28 09:04:03;;;;;;;;;5.00;4.00;;;;;8.38;70.45;99315.94;5076430;28;8884;-59
2022/11/28 09:06:31;;;;;;;;;7.00;6.00;;;;;8.37;69.79;99324.88;5075713;28;8837;-59
2022/11/28 09:09:00;;;;;;;;;6.20;6.20;;;;;8.32;70.22;99324.44;5075425;28;8868;-58
2022/11/28 09:11:28;;;;;;;;;6.40;4.80;;;;;8.26;70.49;99324.06;5074105;28;8921;-59
2022/11/28 09:13:56;;;;;;;;;3.75;3.25;;;;;8.22;71.17;99331.41;5071118;28;8934;-59
2022/11/28 09:16:24;;;;;;;;;6.50;6.00;;;;;8.20;70.91;99324.56;5072445;28;8830;-59
2022/11/28 09:18:52;;;;;;;;;4.50;3.75;;;;;8.18;71.25;99323.78;5072402;28;8845;-59
2022/11/28 09:21:20;;;;;;;;;5.20;4.80;;;;;8.14;71.25;99317.06;5072198;28;8836;-59
2022/11/28 09:23:48;;;;;;;;;4.40;4.00;;;;;8.13;71.49;99321.50;5073175;28;8841;-59
2022/11/28 09:26:17;;;;;;;;;6.60;5.60;;;;;8.16;71.35;99326.59;5074528;28;8858;-59
2022/11/28 09:28:45;;;;;;;;;6.75;6.00;;;;;8.18;71.14;99329.94;5075205;28;8992;-59
2022/11/28 09:31:13;;;;;;;;;4.00;3.00;;;;;8.22;71.24;99336.72;5074777;28;8984;-59
2022/11/28 09:33:41;;;;;;;;;7.20;6.60;;;;;8.28;70.94;99336.22;5075036;28;9609;-59
2022/11/28 09:36:09;;;;;;;;;6.80;6.80;;;;;8.34;70.75;99334.88;5074455;28;8830;-59
2022/11/28 09:38:38;;;;;;;;;4.80;3.00;;;;;8.38;71.08;99336.34;5075500;28;8830;-59
2022/11/28 09:41:06;;;;;;;;;0.00;0.00;;;;;8.43;70.75;99334.19;5075447;28;8831;-59
2022/11/28 09:43:34;;;;;;;;;1.00;1.00;;;;;8.49;71.21;99333.66;5074665;28;8844;-59
2022/11/28 09:46:02;;;;;;;;;9.80;7.40;;;;;8.54;70.99;99329.69;5075457;28;8972;-59
2022/11/28 09:48:30;;;;;;;;;7.40;5.20;;;;;8.59;70.60;99340.75;5072914;28;8868;-58
2022/11/28 09:50:59;;;;;;;;;6.00;6.00;;;;;8.64;71.01;99340.38;5072687;28;8846;-58
2022/11/28 09:53:28;;;;;;;;;3.80;3.20;;;;;8.67;70.66;99333.00;5073225;28;8918;-59
2022/11/28 09:55:56;;;;;;;;;7.00;7.00;;;;;8.70;70.42;99338.09;5072201;28;8829;-59
2022/11/28 09:58:24;;;;;;;;;10.00;9.50;;;;;8.73;70.39;99331.69;5071401;28;8856;-59
2022/11/28 10:00:52;;;;;;;;;7.40;7.00;;;;;8.74;70.71;99330.72;5070420;28;8952;-58
2022/11/28 10:03:24;;;;;;;;;9.50;7.50;;;;;8.71;70.90;99337.13;5071642;28;8857;-57
2022/11/28 10:05:52;;;;;;;;;6.00;6.00;;;;;8.67;70.97;99338.31;5072178;28;8886;-58
2022/11/28 10:08:20;;;;;;;;;6.50;6.50;;;;;8.67;70.74;99350.75;5072142;28;8829;-59
2022/11/28 10:10:49;;;;;;;;;8.00;8.00;;;;;8.68;71.28;99340.00;5071846;28;8948;-58
2022/11/28 10:13:17;;;;;;;;;5.00;5.00;;;;;8.72;70.85;99338.78;5072058;28;9220;-58
2022/11/28 10:15:45;;;;;;;;;10.00;9.00;;;;;8.77;70.67;99335.75;5073273;28;8862;-59
2022/11/28 10:18:12;;;;;;;;;5.50;5.50;;;;;8.82;70.53;99334.41;5072098;28;8842;-58
2022/11/28 10:20:40;;;;;;;;;7.50;7.00;;;;;8.90;70.93;99333.78;5070637;28;8846;-58
2022/11/28 10:23:08;;;;;;;;;6.50;6.50;;;;;8.97;70.28;99341.09;5070127;28;8842;-59
2022/11/28 10:25:36;;;;;;;;;6.75;6.00;;;;;9.04;70.51;99333.50;5071615;28;8837;-59
2022/11/28 10:28:04;;;;;;;;;10.00;9.50;;;;;9.09;70.76;99329.47;5070106;28;8960;-59
2022/11/28 10:30:33;;;;;;;;;6.25;6.00;;;;;9.17;70.19;99332.34;5071136;28;8841;-58
2022/11/28 10:33:01;;;;;;;;;6.25;5.50;;;;;9.22;69.89;99335.47;5069916;28;8842;-58
2022/11/28 10:35:29;;;;;;;;;6.00;6.00;;;;;9.26;70.32;99328.06;5068444;28;8893;-59
2022/11/28 10:37:57;;;;;;;;;4.25;3.75;;;;;9.31;69.78;99340.00;5067831;28;8984;-59
2022/11/28 10:40:27;;;;;;;;;6.75;6.50;;;;;9.35;70.02;99332.63;5069059;28;8826;-59
2022/11/28 10:42:55;;;;;;;;;5.00;5.00;;;;;9.38;70.07;99342.97;5068572;28;9618;-58
2022/11/28 10:45:23;;;;;;;;;8.00;6.75;;;;;9.41;70.01;99340.06;5069425;28;8842;-59
2022/11/28 10:47:51;;;;;;;;;6.75;5.50;;;;;9.42;69.88;99336.44;5068417;28;8821;-59
2022/11/28 10:50:19;;;;;;;;;8.50;6.25;;;;;9.41;69.95;99343.56;5068669;28;8834;-59
2022/11/28 10:52:48;;;;;;;;;6.25;6.00;;;;;9.39;70.05;99340.19;5069610;28;9608;-59
2022/11/28 10:55:16;;;;;;;;;8.50;6.50;;;;;9.32;70.14;99338.16;5067531;28;8869;-59
2022/11/28 10:57:44;;;;;;;;;7.25;6.00;;;;;9.24;70.63;99344.13;5066486;28;8834;-58
2022/11/28 11:00:12;;;;;;;;;6.00;6.00;;;;;9.18;70.83;99344.66;5067655;28;8923;-59
2022/11/28 11:02:40;;;;;;;;;6.75;6.00;;;;;9.14;71.15;99348.53;5068009;28;8962;-56
2022/11/28 11:05:10;;;;;;;;;6.75;6.00;;;;;9.09;71.49;99345.41;5069846;28;8911;-59
2022/11/28 11:07:38;;;;;;;;;9.25;7.25;;;;;9.07;71.10;99344.72;5069975;28;8841;-59
2022/11/28 11:10:06;;;;;;;;;6.75;5.50;;;;;9.06;71.25;99342.16;5071106;28;8853;-57
2022/11/28 11:12:34;;;;;;;;;6.75;6.00;;;;;9.04;70.89;99342.28;5070751;28;8934;-59
2022/11/28 11:15:02;;;;;;;;;9.00;9.00;;;;;9.04;71.33;99342.28;5070706;28;8931;-58
2022/11/28 11:17:31;;;;;;;;;12.50;10.00;;;;;9.03;71.36;99342.44;5070746;28;8834;-59
2022/11/28 11:20:03;;;;;;;;;9.25;9.00;;;;;9.01;71.31;99345.22;5070333;28;8838;-59
2022/11/28 11:22:31;;;;;;;;;8.00;7.00;;;;;9.01;71.67;99345.22;5070002;28;9196;-59
2022/11/28 11:24:59;;;;;;;;;4.00;4.00;;;;;9.01;71.70;99337.25;5069553;28;8865;-59
2022/11/28 11:27:27;;;;;;;;;6.25;6.25;;;;;9.03;71.63;99348.56;5069045;28;8846;-57
2022/11/28 11:29:55;;;;;;;;;5.00;5.00;;;;;9.05;71.86;99351.13;5068793;28;8984;-59
2022/11/28 11:32:23;;;;;;;;;8.50;7.75;;;;;9.04;71.48;99344.94;5068747;28;8853;-58
2022/11/28 11:34:51;;;;;;;;;6.00;6.00;;;;;9.05;71.66;99345.81;5067871;28;8848;-59
2022/11/28 11:37:19;;;;;;;;;4.50;4.00;;;;;9.05;71.86;99340.50;5069120;28;9030;-59
2022/11/28 11:39:47;;;;;;;;;8.00;8.00;;;;;9.08;71.50;99345.53;5069652;28;8830;-59
2022/11/28 11:42:18;;;;;;;;;6.75;6.75;;;;;9.10;71.40;99340.94;5061732;28;8854;-59
2022/11/28 11:44:46;;;;;;;;;5.00;4.00;;;;;9.14;71.79;99345.03;5067956;28;8943;-59
2022/11/28 11:47:14;;;;;;;;;4.50;4.25;;;;;9.16;71.58;99345.75;5068104;28;8833;-59
2022/11/28 11:49:42;;;;;;;;;7.00;6.00;;;;;9.18;71.27;99346.47;5071477;28;8968;-58
2022/11/28 11:52:11;;;;;;;;;9.00;7.00;;;;;9.18;71.48;99344.66;5072191;28;8865;-59
2022/11/28 11:54:40;;;;;;;;;4.00;4.00;;;;;9.21;71.25;99346.22;5072518;28;8841;-59